createdAt,value
2023-05-09T00:00:11.278Z,74.95
2023-05-09T00:02:38.463Z,62.00
2023-05-09T00:05:05.515Z,52.40
2023-05-09T00:07:31.978Z,43.70
2023-05-09T00:09:58.606Z,62.80
2023-05-09T00:12:24.984Z,70.15
2023-05-09T00:14:51.929Z,57.97
2023-05-09T00:17:18.579Z,69.38
2023-05-09T00:19:45.017Z,65.90
2023-05-09T00:22:12.996Z,106.07
2023-05-09T00:24:39.348Z,34.10
2023-05-09T00:27:05.726Z,39.60
2023-05-09T00:29:32.113Z,40.08
2023-05-09T00:31:58.486Z,36.03
2023-05-09T00:34:24.942Z,33.88
2023-05-09T00:36:51.691Z,34.78
2023-05-09T00:39:17.994Z,210.57
2023-05-09T00:41:44.574Z,82.35
2023-05-09T00:44:10.879Z,162.25
2023-05-09T00:46:37.314Z,156.25
2023-05-09T00:49:04.511Z,156.57
2023-05-09T00:51:30.936Z,136.70
2023-05-09T00:53:57.236Z,147.05
2023-05-09T00:56:26.703Z,159.50
2023-05-09T00:58:53.177Z,152.15
2023-05-09T01:01:19.592Z,162.82
2023-05-09T01:03:47.350Z,129.15
2023-05-09T01:06:29.351Z,147.93
2023-05-09T01:09:07.664Z,128.52
2023-05-09T01:11:36.527Z,139.57
2023-05-09T01:14:04.308Z,142.13
2023-05-09T01:16:33.537Z,146.68
2023-05-09T01:19:12.116Z,133.77
2023-05-09T01:21:40.609Z,142.30
2023-05-09T01:24:26.233Z,148.80
2023-05-09T01:29:24.923Z,132.57
2023-05-09T01:31:51.991Z,110.25
2023-05-09T01:34:18.436Z,134.02
2023-05-09T01:36:46.428Z,149.02
2023-05-09T01:39:13.916Z,154.00
2023-05-09T01:41:40.328Z,154.25
2023-05-09T01:44:09.136Z,129.60
2023-05-09T01:46:36.149Z,152.55
2023-05-09T01:49:02.953Z,128.40
2023-05-09T01:51:31.157Z,131.73
2023-05-09T01:53:57.957Z,145.77
2023-05-09T01:56:24.888Z,120.32
2023-05-09T01:58:51.708Z,141.75
2023-05-09T02:01:19.755Z,142.00
2023-05-09T02:03:48.133Z,153.43
2023-05-09T02:06:15.539Z,155.20
2023-05-09T02:08:42.596Z,132.10
2023-05-09T02:11:08.970Z,145.40
2023-05-09T02:13:35.320Z,138.95
2023-05-09T02:16:01.782Z,167.63
2023-05-09T02:18:29.282Z,134.45
2023-05-09T02:20:55.747Z,152.95
2023-05-09T02:23:22.187Z,141.82
2023-05-09T02:25:48.538Z,152.25
2023-05-09T02:28:15.562Z,111.32
2023-05-09T02:30:45.764Z,103.30
2023-05-09T02:33:12.936Z,108.95
2023-05-09T02:35:43.953Z,98.43
2023-05-09T02:38:10.612Z,94.25
2023-05-09T02:40:36.940Z,84.15
2023-05-09T02:43:04.050Z,108.38
2023-05-09T02:45:30.484Z,71.95
2023-05-09T02:47:56.893Z,88.63
2023-05-09T02:50:23.299Z,91.57
2023-05-09T02:52:49.606Z,44.63
2023-05-09T02:55:16.291Z,81.15
2023-05-09T02:57:42.864Z,98.40
2023-05-09T03:00:09.696Z,65.05
2023-05-09T03:02:36.549Z,104.82
2023-05-09T03:05:03.121Z,84.68
2023-05-09T03:07:29.902Z,85.72
2023-05-09T03:09:56.249Z,98.13
2023-05-09T03:12:22.542Z,95.70
2023-05-09T03:14:48.848Z,83.88
2023-05-09T03:17:20.953Z,68.53
2023-05-09T03:19:48.286Z,88.60
2023-05-09T03:22:14.830Z,72.97
2023-05-09T03:24:41.120Z,89.25
2023-05-09T03:27:07.430Z,89.75
2023-05-09T03:29:33.757Z,90.75
2023-05-09T03:32:00.216Z,88.60
2023-05-09T03:34:26.578Z,72.75
2023-05-09T03:36:52.864Z,72.30
2023-05-09T03:39:19.168Z,68.35
2023-05-09T03:41:45.610Z,87.93
2023-05-09T03:44:11.931Z,78.05
2023-05-09T03:46:38.264Z,76.47
2023-05-09T03:49:04.588Z,58.95
2023-05-09T03:51:31.059Z,85.03
2023-05-09T03:53:57.346Z,83.35
2023-05-09T03:56:23.721Z,60.35
2023-05-09T03:58:50.033Z,80.20
2023-05-09T04:01:16.374Z,92.63
2023-05-09T04:03:43.118Z,164.73
2023-05-09T04:06:09.877Z,150.18
2023-05-09T04:08:36.516Z,149.43
2023-05-09T04:11:02.974Z,162.23
2023-05-09T04:13:30.896Z,158.88
2023-05-09T04:15:57.223Z,154.20
2023-05-09T04:18:23.529Z,145.52
2023-05-09T04:20:49.850Z,158.60
2023-05-09T04:23:16.176Z,170.52
2023-05-09T04:25:42.586Z,155.30
2023-05-09T04:28:08.872Z,165.18
2023-05-09T04:30:35.556Z,122.60
2023-05-09T04:33:01.891Z,160.10
2023-05-09T04:35:28.229Z,127.10
2023-05-09T04:37:54.525Z,143.45
2023-05-09T04:40:20.945Z,139.52
2023-05-09T04:42:47.302Z,153.10
2023-05-09T04:45:13.791Z,157.88
2023-05-09T04:47:40.398Z,126.80
2023-05-09T04:50:07.960Z,147.32
2023-05-09T04:52:34.258Z,158.02
2023-05-09T04:55:00.924Z,154.68
2023-05-09T04:57:27.294Z,147.80
2023-05-09T04:59:53.576Z,155.77
2023-05-09T05:02:21.180Z,142.98
2023-05-09T05:04:47.637Z,155.15
2023-05-09T05:07:13.992Z,122.53
2023-05-09T05:09:40.397Z,119.88
2023-05-09T05:12:09.320Z,136.20
2023-05-09T05:14:36.232Z,131.20
2023-05-09T05:17:02.505Z,129.02
2023-05-09T05:19:28.814Z,128.60
2023-05-09T05:21:55.250Z,135.80
2023-05-09T05:24:21.606Z,52.53
2023-05-09T05:26:47.906Z,73.10
2023-05-09T05:29:14.234Z,75.25
2023-05-09T05:31:40.537Z,56.47
2023-05-09T05:34:06.859Z,127.22
2023-05-09T05:36:33.343Z,136.23
2023-05-09T05:38:59.660Z,130.40
2023-05-09T05:41:26.257Z,147.70
2023-05-09T05:43:54.286Z,162.52
2023-05-09T05:46:21.058Z,9.88
2023-05-09T05:48:47.353Z,156.13
2023-05-09T05:51:13.654Z,125.40
2023-05-09T05:53:39.940Z,143.75
2023-05-09T05:56:06.398Z,151.23
2023-05-09T05:58:32.692Z,144.13
2023-05-09T06:00:58.990Z,121.22
2023-05-09T06:03:25.562Z,145.80
2023-05-09T06:05:52.081Z,136.88
2023-05-09T06:08:18.401Z,9.52
2023-05-09T06:10:44.751Z,133.32
2023-05-09T06:13:11.376Z,130.93
2023-05-09T06:15:37.746Z,147.85
2023-05-09T06:18:04.167Z,119.70
2023-05-09T06:20:30.550Z,121.95
2023-05-09T06:22:56.913Z,140.38
2023-05-09T06:25:23.235Z,119.10
2023-05-09T06:27:49.538Z,134.82
2023-05-09T06:30:25.349Z,132.75
2023-05-09T06:32:52.504Z,130.52
2023-05-09T06:35:18.901Z,145.63
2023-05-09T06:37:47.712Z,132.68
2023-05-09T06:40:15.829Z,122.65
2023-05-09T06:42:42.128Z,146.32
2023-05-09T06:45:08.850Z,130.48
2023-05-09T06:47:35.358Z,142.23
2023-05-09T06:50:01.766Z,114.50
2023-05-09T06:52:28.060Z,116.78
2023-05-09T06:54:54.503Z,133.27
2023-05-09T06:57:20.884Z,98.65
2023-05-09T06:59:47.207Z,120.32
2023-05-09T07:02:13.532Z,138.80
2023-05-09T07:04:39.892Z,106.38
2023-05-09T07:07:06.308Z,137.30
2023-05-09T07:09:32.811Z,137.48
2023-05-09T07:12:00.128Z,80.50
2023-05-09T07:14:26.954Z,132.10
2023-05-09T07:16:53.303Z,132.63
2023-05-09T07:19:19.698Z,127.38
2023-05-09T07:21:46.341Z,114.13
2023-05-09T07:24:12.744Z,114.38
2023-05-09T07:26:39.128Z,128.40
2023-05-09T07:29:05.456Z,118.93
2023-05-09T07:31:31.805Z,137.75
2023-05-09T07:33:58.159Z,128.50
2023-05-09T07:36:24.607Z,127.53
2023-05-09T07:38:52.714Z,129.60
2023-05-09T07:41:19.344Z,115.18
2023-05-09T07:43:45.657Z,135.05
2023-05-09T07:46:12.147Z,118.63
2023-05-09T07:48:38.489Z,126.47
2023-05-09T07:51:04.767Z,110.20
2023-05-09T07:53:31.102Z,122.35
2023-05-09T07:55:58.368Z,101.72
2023-05-09T07:58:24.663Z,105.57
2023-05-09T08:00:50.959Z,122.10
2023-05-09T08:03:17.467Z,112.90
2023-05-09T08:05:43.970Z,92.40
2023-05-09T08:08:10.258Z,114.60
2023-05-09T08:10:36.554Z,109.32
2023-05-09T08:13:02.938Z,109.72
2023-05-09T08:15:29.362Z,110.35
2023-05-09T08:17:55.772Z,105.93
2023-05-09T08:20:22.150Z,94.10
2023-05-09T08:22:48.457Z,118.35
2023-05-09T08:25:16.694Z,94.03
2023-05-09T08:27:43.423Z,103.32
2023-05-09T08:30:10.024Z,109.40
2023-05-09T08:32:36.451Z,94.72
2023-05-09T08:35:02.928Z,100.68
2023-05-09T08:37:29.258Z,102.47
2023-05-09T08:39:55.575Z,102.85
2023-05-09T08:42:24.781Z,107.68
2023-05-09T08:44:52.766Z,102.75
2023-05-09T08:47:21.083Z,87.63
2023-05-09T08:49:47.627Z,110.97
2023-05-09T08:52:14.189Z,102.63
2023-05-09T08:54:40.495Z,109.00
2023-05-09T08:57:06.993Z,106.13
2023-05-09T08:59:35.140Z,105.78
2023-05-09T09:02:01.505Z,25.02
2023-05-09T09:04:27.972Z,19.50
2023-05-09T09:06:54.648Z,21.05
2023-05-09T09:09:20.984Z,19.77
2023-05-09T09:11:47.872Z,23.30
2023-05-09T09:14:20.391Z,22.55
2023-05-09T09:16:47.379Z,13.63
2023-05-09T09:19:16.492Z,18.70
2023-05-09T09:21:44.083Z,21.17
2023-05-09T09:24:12.988Z,20.98
2023-05-09T09:26:49.078Z,19.73
2023-05-09T09:29:15.716Z,15.85
2023-05-09T09:31:46.090Z,14.75
2023-05-09T09:34:14.357Z,6.57
2023-05-09T09:36:40.758Z,14.38
2023-05-09T09:39:07.333Z,13.15
2023-05-09T09:41:34.479Z,10.52
2023-05-09T09:44:07.693Z,13.80
2023-05-09T09:46:52.654Z,13.60
2023-05-09T09:49:20.764Z,13.15
2023-05-09T09:51:51.319Z,14.48
2023-05-09T09:54:17.933Z,12.85
2023-05-09T09:56:45.667Z,11.07
2023-05-09T09:59:13.005Z,11.10
2023-05-09T10:01:57.993Z,10.52
2023-05-09T10:04:24.649Z,10.02
2023-05-09T10:06:54.994Z,9.77
2023-05-09T10:09:22.755Z,12.10
2023-05-09T10:11:49.609Z,11.18
2023-05-09T10:14:16.675Z,9.30
2023-05-09T10:16:44.572Z,10.93
2023-05-09T10:19:12.035Z,11.57
2023-05-09T10:21:39.235Z,11.00
2023-05-09T10:24:05.916Z,11.38
2023-05-09T10:26:36.408Z,10.32
2023-05-09T10:29:05.641Z,9.30
2023-05-09T10:31:32.509Z,9.02
2023-05-09T10:34:01.359Z,10.13
2023-05-09T10:36:28.468Z,8.20
2023-05-09T10:38:55.461Z,9.98
2023-05-09T10:41:25.662Z,9.77
2023-05-09T10:43:52.449Z,10.13
2023-05-09T10:46:19.238Z,9.80
2023-05-09T10:48:46.646Z,9.85
2023-05-09T10:51:13.223Z,9.05
2023-05-09T10:53:45.593Z,10.60
2023-05-09T10:56:32.155Z,8.50
2023-05-09T10:58:59.404Z,9.68
2023-05-09T11:01:31.074Z,9.73
2023-05-09T11:03:58.637Z,11.00
2023-05-09T11:06:46.234Z,13.52
2023-05-09T11:09:42.625Z,6.30
2023-05-09T11:12:10.796Z,4.65
2023-05-09T11:14:41.428Z,4.55
2023-05-09T11:17:12.512Z,7.95
2023-05-09T11:19:57.726Z,7.40
2023-05-09T11:22:27.447Z,6.45
2023-05-09T11:25:01.956Z,6.95
2023-05-09T11:27:29.006Z,4.40
2023-05-09T11:29:56.757Z,4.50
2023-05-09T11:32:27.673Z,4.43
2023-05-09T11:35:05.679Z,4.50
2023-05-09T11:37:32.551Z,4.30
2023-05-09T11:40:04.793Z,4.60
2023-05-09T11:42:31.850Z,5.28
2023-05-09T11:44:58.938Z,4.95
2023-05-09T11:47:25.961Z,4.60
2023-05-09T11:49:52.278Z,4.82
2023-05-09T11:52:19.643Z,4.68
2023-05-09T11:54:45.924Z,5.80
2023-05-09T11:57:17.156Z,4.18
2023-05-09T11:59:45.369Z,4.50
2023-05-09T12:02:12.877Z,3.65
2023-05-09T12:04:39.663Z,4.72
2023-05-09T12:07:06.529Z,4.18
2023-05-09T12:09:33.766Z,4.25
2023-05-09T12:12:01.161Z,5.15
2023-05-09T12:14:30.799Z,3.33
2023-05-09T12:16:57.605Z,4.35
2023-05-09T12:19:24.888Z,3.55
2023-05-09T12:21:55.399Z,3.92
2023-05-09T12:24:21.890Z,3.65
2023-05-09T12:26:48.794Z,3.95
2023-05-09T12:29:15.206Z,3.90
2023-05-09T12:31:42.093Z,3.90
2023-05-09T12:34:09.856Z,6.07
2023-05-09T12:36:37.088Z,8.38
2023-05-09T12:39:09.323Z,6.05
2023-05-09T12:41:53.600Z,6.03
2023-05-09T12:44:29.272Z,5.95
2023-05-09T12:46:59.812Z,6.30
2023-05-09T12:49:26.758Z,6.82
2023-05-09T12:51:53.649Z,7.05
2023-05-09T12:54:23.747Z,7.38
2023-05-09T12:56:52.430Z,6.32
2023-05-09T12:59:22.812Z,6.70
2023-05-09T13:01:59.104Z,7.07
2023-05-09T13:04:26.776Z,7.85
2023-05-09T13:06:55.457Z,6.63
2023-05-09T13:09:22.441Z,6.72
2023-05-09T13:11:49.831Z,7.32
2023-05-09T13:14:16.188Z,6.88
2023-05-09T13:16:43.296Z,8.20
2023-05-09T13:19:09.722Z,6.43
2023-05-09T13:21:36.256Z,7.15
2023-05-09T13:24:03.536Z,6.75
2023-05-09T13:26:29.994Z,5.35
2023-05-09T13:28:56.572Z,6.80
2023-05-09T13:31:23.116Z,7.97
2023-05-09T13:33:51.703Z,6.47
2023-05-09T13:36:18.465Z,7.72
2023-05-09T13:38:45.568Z,4.07
2023-05-09T13:41:12.860Z,4.13
2023-05-09T13:43:39.859Z,4.45
2023-05-09T13:46:06.443Z,3.97
2023-05-09T13:48:32.803Z,4.60
2023-05-09T13:51:00.376Z,3.72
2023-05-09T13:53:26.709Z,4.07
2023-05-09T13:55:53.018Z,4.35
2023-05-09T13:58:19.588Z,4.00
2023-05-09T14:00:45.936Z,4.93
2023-05-09T14:03:12.223Z,4.95
2023-05-09T14:05:38.527Z,4.93
2023-05-09T14:08:04.970Z,4.50
2023-05-09T14:10:31.371Z,5.25
2023-05-09T14:12:57.973Z,5.10
2023-05-09T14:15:24.359Z,4.72
2023-05-09T14:17:50.867Z,5.00
2023-05-09T14:20:17.440Z,5.82
2023-05-09T14:22:43.863Z,4.63
2023-05-09T14:25:10.199Z,4.75
2023-05-09T14:27:37.187Z,5.05
2023-05-09T14:30:04.348Z,5.13
2023-05-09T14:32:30.644Z,4.82
2023-05-09T14:34:57.013Z,5.88
2023-05-09T14:37:23.394Z,5.45
2023-05-09T14:39:49.680Z,4.97
2023-05-09T14:42:16.677Z,5.25
2023-05-09T14:44:43.034Z,5.07
2023-05-09T14:47:09.970Z,5.22
2023-05-09T14:49:36.670Z,5.32
2023-05-09T14:52:03.526Z,4.97
2023-05-09T14:54:29.953Z,5.20
2023-05-09T14:56:57.214Z,5.15
2023-05-09T14:59:23.556Z,4.70
2023-05-09T15:01:51.714Z,5.20
2023-05-09T15:04:18.033Z,6.50
2023-05-09T15:06:45.296Z,5.15
2023-05-09T15:09:12.739Z,7.35
2023-05-09T15:11:47.643Z,5.65
2023-05-09T15:14:14.797Z,5.65
2023-05-09T15:16:41.338Z,5.18
2023-05-09T15:19:08.067Z,5.35
2023-05-09T15:21:35.018Z,5.20
2023-05-09T15:24:02.279Z,4.90
2023-05-09T15:26:29.196Z,5.18
2023-05-09T15:28:55.522Z,5.30
2023-05-09T15:31:23.292Z,4.88
2023-05-09T15:33:49.653Z,5.10
2023-05-09T15:36:16.328Z,6.00
2023-05-09T15:38:42.709Z,5.55
2023-05-09T15:41:09.236Z,5.63
2023-05-09T15:43:35.538Z,4.53
2023-05-09T15:46:02.464Z,4.72
2023-05-09T15:48:28.825Z,4.95
2023-05-09T15:50:55.141Z,5.50
2023-05-09T15:53:23.079Z,5.13
2023-05-09T15:55:49.476Z,4.97
2023-05-09T15:58:16.403Z,5.15
2023-05-09T16:00:42.810Z,5.50
2023-05-09T16:03:09.341Z,4.60
2023-05-09T16:05:35.822Z,4.88
2023-05-09T16:08:02.112Z,5.60
2023-05-09T16:10:28.439Z,3.90
2023-05-09T16:12:54.752Z,4.00
2023-05-09T16:15:21.432Z,5.10
2023-05-09T16:17:47.737Z,3.70
2023-05-09T16:20:14.502Z,5.38
2023-05-09T16:22:41.312Z,4.57
2023-05-09T16:25:08.123Z,4.97
2023-05-09T16:27:34.417Z,4.55
2023-05-09T16:30:00.852Z,4.22
2023-05-09T16:32:27.300Z,3.75
2023-05-09T16:34:54.231Z,6.95
2023-05-09T16:37:20.590Z,6.38
2023-05-09T16:39:46.952Z,6.72
2023-05-09T16:42:13.275Z,8.25
2023-05-09T16:44:39.660Z,8.80
2023-05-09T16:47:06.062Z,8.23
2023-05-09T16:49:32.615Z,7.82
2023-05-09T16:51:59.383Z,8.40
2023-05-09T16:54:25.688Z,8.40
2023-05-09T16:56:52.069Z,5.80
2023-05-09T16:59:20.003Z,5.00
2023-05-09T17:01:47.563Z,5.95
2023-05-09T17:04:14.318Z,6.28
2023-05-09T17:06:40.853Z,5.45
2023-05-09T17:09:07.585Z,5.80
2023-05-09T17:11:33.985Z,5.07
2023-05-09T17:14:01.688Z,5.80
2023-05-09T17:16:28.010Z,6.07
2023-05-09T17:18:54.345Z,5.47
2023-05-09T17:21:20.795Z,5.57
2023-05-09T17:23:47.149Z,6.03
2023-05-09T17:26:13.457Z,5.05
2023-05-09T17:28:39.774Z,5.00
2023-05-09T17:31:06.388Z,5.43
2023-05-09T17:33:32.790Z,6.82
2023-05-09T17:35:59.991Z,6.35
2023-05-09T17:38:26.303Z,7.80
2023-05-09T17:40:52.692Z,6.65
2023-05-09T17:43:19.061Z,7.78
2023-05-09T17:45:46.317Z,6.03
2023-05-09T17:48:13.470Z,5.75
2023-05-09T17:50:39.834Z,7.43
2023-05-09T17:53:08.666Z,7.00
2023-05-09T17:55:35.034Z,6.97
2023-05-09T17:58:01.436Z,7.40
2023-05-09T18:00:27.827Z,8.00
2023-05-09T18:02:54.184Z,6.78
2023-05-09T18:05:20.708Z,5.70
2023-05-09T18:07:47.152Z,6.47
2023-05-09T18:10:13.711Z,6.72
2023-05-09T18:12:40.260Z,7.45
2023-05-09T18:15:07.035Z,7.40
2023-05-09T18:17:33.390Z,7.57
2023-05-09T18:19:59.731Z,7.47
2023-05-09T18:22:26.057Z,6.50
2023-05-09T18:24:52.534Z,6.80
2023-05-09T18:27:18.985Z,7.72
2023-05-09T18:29:47.435Z,6.80
2023-05-09T18:32:14.048Z,7.63
2023-05-09T18:34:40.508Z,6.35
2023-05-09T18:37:07.180Z,8.20
2023-05-09T18:39:33.590Z,10.93
2023-05-09T18:41:59.885Z,9.63
2023-05-09T18:44:26.401Z,10.63
2023-05-09T18:46:53.831Z,10.50
2023-05-09T18:49:20.368Z,11.18
2023-05-09T18:51:46.663Z,10.13
2023-05-09T18:54:14.009Z,11.13
2023-05-09T18:56:41.776Z,11.90
2023-05-09T18:59:09.595Z,11.88
2023-05-09T19:01:37.712Z,12.05
2023-05-09T19:04:04.492Z,9.85
2023-05-09T19:06:31.832Z,9.77
2023-05-09T19:08:58.285Z,7.65
2023-05-09T19:11:25.008Z,9.45
2023-05-09T19:13:52.926Z,9.05
2023-05-09T19:16:21.668Z,8.27
2023-05-09T19:18:48.812Z,9.52
2023-05-09T19:21:15.896Z,19.60
2023-05-09T19:23:42.568Z,10.63
2023-05-09T19:26:09.883Z,9.27
2023-05-09T19:28:36.178Z,8.55
2023-05-09T19:31:02.596Z,8.73
2023-05-09T19:33:29.073Z,9.35
2023-05-09T19:35:55.420Z,9.68
2023-05-09T19:38:21.841Z,9.35
2023-05-09T19:40:48.194Z,9.65
2023-05-09T19:43:14.549Z,10.52
2023-05-09T19:45:40.924Z,10.98
2023-05-09T19:48:07.326Z,8.88
2023-05-09T19:50:33.638Z,8.68
2023-05-09T19:53:00.002Z,10.80
2023-05-09T19:55:26.432Z,8.98
2023-05-09T19:57:52.929Z,8.38
2023-05-09T20:00:19.534Z,7.80
2023-05-09T20:02:47.144Z,19.10
2023-05-09T20:05:13.604Z,9.00
2023-05-09T20:07:39.916Z,9.50
2023-05-09T20:10:06.500Z,10.18
2023-05-09T20:12:32.822Z,9.05
2023-05-09T20:14:59.211Z,8.93
2023-05-09T20:17:25.642Z,8.88
2023-05-09T20:19:51.957Z,7.80
2023-05-09T20:22:18.250Z,8.25
2023-05-09T20:24:44.584Z,9.50
2023-05-09T20:27:10.951Z,8.75
2023-05-09T20:29:37.252Z,8.23
2023-05-09T20:32:03.636Z,7.80
2023-05-09T20:34:29.998Z,8.00
2023-05-09T20:36:56.287Z,8.30
2023-05-09T20:39:23.159Z,6.63
2023-05-09T20:41:49.722Z,6.95
2023-05-09T20:44:17.690Z,7.85
2023-05-09T20:46:44.994Z,6.43
2023-05-09T20:49:11.357Z,13.63
2023-05-09T20:51:38.001Z,7.30
2023-05-09T20:54:04.656Z,6.82
2023-05-09T20:56:31.065Z,6.93
2023-05-09T20:59:00.972Z,7.07
2023-05-09T21:01:27.354Z,6.68
2023-05-09T21:03:53.738Z,6.57
2023-05-09T21:06:20.041Z,6.95
2023-05-09T21:08:46.340Z,6.32
2023-05-09T21:11:12.634Z,7.50
2023-05-09T21:13:38.929Z,7.38
2023-05-09T21:16:05.994Z,7.53
2023-05-09T21:18:32.416Z,7.25
2023-05-09T21:21:00.778Z,8.02
2023-05-09T21:23:27.095Z,7.32
2023-05-09T21:25:53.365Z,7.53
2023-05-09T21:28:20.733Z,6.50
2023-05-09T21:30:51.754Z,8.00
2023-05-09T21:33:18.123Z,8.32
2023-05-09T21:35:44.804Z,20.23
2023-05-09T21:38:11.383Z,19.45
2023-05-09T21:40:37.676Z,7.13
2023-05-09T21:43:03.987Z,8.73
2023-05-09T21:45:30.369Z,9.07
2023-05-09T21:47:56.794Z,8.90
2023-05-09T21:50:23.312Z,8.98
2023-05-09T21:52:49.659Z,9.20
2023-05-09T21:55:16.140Z,7.47
2023-05-09T21:57:42.429Z,8.60
2023-05-09T22:00:14.251Z,8.30
2023-05-09T22:02:42.910Z,8.52
2023-05-09T22:05:10.189Z,8.30
2023-05-09T22:07:36.811Z,8.85
2023-05-09T22:10:03.664Z,8.63
2023-05-09T22:12:30.058Z,8.05
2023-05-09T22:14:57.015Z,8.73
2023-05-09T22:17:24.358Z,8.75
2023-05-09T22:19:50.803Z,8.65
2023-05-09T22:22:17.113Z,7.22
2023-05-09T22:24:43.632Z,7.28
2023-05-09T22:27:10.340Z,7.78
2023-05-09T22:29:36.707Z,7.40
2023-05-09T22:32:03.219Z,7.13
2023-05-09T22:34:29.629Z,7.22
2023-05-09T22:36:56.727Z,7.38
2023-05-09T22:39:23.025Z,6.28
2023-05-09T22:41:49.441Z,6.35
2023-05-09T22:44:15.845Z,6.72
2023-05-09T22:46:42.202Z,6.30
2023-05-09T22:49:08.917Z,6.55
2023-05-09T22:51:35.212Z,5.88
2023-05-09T22:54:01.514Z,6.25
2023-05-09T22:56:27.811Z,7.15
2023-05-09T22:58:54.106Z,6.38
2023-05-09T23:01:20.457Z,7.68
2023-05-09T23:03:46.837Z,7.88
2023-05-09T23:06:13.173Z,8.48
2023-05-09T23:08:39.511Z,8.02
2023-05-09T23:11:06.034Z,7.80
2023-05-09T23:13:32.479Z,7.53
2023-05-09T23:15:58.826Z,8.57
2023-05-09T23:18:25.698Z,7.82
2023-05-09T23:20:52.039Z,8.55
2023-05-09T23:23:18.329Z,7.90
2023-05-09T23:25:44.635Z,8.68
2023-05-09T23:28:10.962Z,8.45
2023-05-09T23:30:37.297Z,8.70
2023-05-09T23:33:03.647Z,8.45
2023-05-09T23:35:30.002Z,9.23
2023-05-09T23:37:56.348Z,8.95
2023-05-09T23:40:22.684Z,10.45
2023-05-09T23:42:49.048Z,10.10
2023-05-09T23:45:15.862Z,10.35
2023-05-09T23:47:42.190Z,11.32
2023-05-09T23:50:08.657Z,9.63
2023-05-09T23:52:34.944Z,11.65
2023-05-09T23:55:01.255Z,11.85
2023-05-09T23:57:27.549Z,13.40
2023-05-09T23:59:53.829Z,10.93
